sensor_id;sensor_type;location;lat;lon;timestamp;temperature;humidity
21207;DHT22;10761;48.532;8.026;2023-05-07T00:00:20;13.70;1.00
21207;DHT22;10761;48.532;8.026;2023-05-07T00:02:46;13.60;1.00
21207;DHT22;10761;48.532;8.026;2023-05-07T00:05:12;13.60;1.00
21207;DHT22;10761;48.532;8.026;2023-05-07T00:07:38;13.50;1.00
21207;DHT22;10761;48.532;8.026;2023-05-07T00:10:04;13.50;1.00
21207;DHT22;10761;48.532;8.026;2023-05-07T00:12:31;13.50;1.00
21207;DHT22;10761;48.532;8.026;2023-05-07T00:15:02;13.50;1.00
21207;DHT22;10761;48.532;8.026;2023-05-07T00:17:29;13.60;1.00
21207;DHT22;10761;48.532;8.026;2023-05-07T00:19:54;13.60;1.00
21207;DHT22;10761;48.532;8.026;2023-05-07T00:22:20;13.60;1.00
21207;DHT22;10761;48.532;8.026;2023-05-07T00:24:46;13.50;1.00
21207;DHT22;10761;48.532;8.026;2023-05-07T00:27:12;13.50;1.00
21207;DHT22;10761;48.532;8.026;2023-05-07T00:29:38;13.50;1.00
21207;DHT22;10761;48.532;8.026;2023-05-07T00:32:04;13.60;1.00
21207;DHT22;10761;48.532;8.026;2023-05-07T00:34:29;13.60;1.00
21207;DHT22;10761;48.532;8.026;2023-05-07T00:36:55;13.50;1.00
21207;DHT22;10761;48.532;8.026;2023-05-07T00:39:21;13.40;1.00
21207;DHT22;10761;48.532;8.026;2023-05-07T00:41:46;13.40;1.00
21207;DHT22;10761;48.532;8.026;2023-05-07T00:44:13;13.40;1.00
21207;DHT22;10761;48.532;8.026;2023-05-07T00:46:40;13.40;1.00
21207;DHT22;10761;48.532;8.026;2023-05-07T00:49:06;13.30;31.40
21207;DHT22;10761;48.532;8.026;2023-05-07T00:51:32;13.20;1.00
21207;DHT22;10761;48.532;8.026;2023-05-07T00:54:00;13.20;1.00
21207;DHT22;10761;48.532;8.026;2023-05-07T00:56:26;13.20;15.30
21207;DHT22;10761;48.532;8.026;2023-05-07T00:58:52;13.20;1.00
21207;DHT22;10761;48.532;8.026;2023-05-07T01:01:18;13.20;13.10
21207;DHT22;10761;48.532;8.026;2023-05-07T01:03:43;13.20;95.70
21207;DHT22;10761;48.532;8.026;2023-05-07T01:06:10;13.20;10.10
21207;DHT22;10761;48.532;8.026;2023-05-07T01:08:39;13.20;99.90
21207;DHT22;10761;48.532;8.026;2023-05-07T01:11:07;13.30;58.90
21207;DHT22;10761;48.532;8.026;2023-05-07T01:13:34;13.20;3.30
21207;DHT22;10761;48.532;8.026;2023-05-07T01:16:00;13.20;90.60
21207;DHT22;10761;48.532;8.026;2023-05-07T01:18:26;13.30;99.90
21207;DHT22;10761;48.532;8.026;2023-05-07T01:20:52;13.40;99.90
21207;DHT22;10761;48.532;8.026;2023-05-07T01:23:19;13.40;98.50
21207;DHT22;10761;48.532;8.026;2023-05-07T01:25:51;13.40;99.90
21207;DHT22;10761;48.532;8.026;2023-05-07T01:28:17;13.30;82.60
21207;DHT22;10761;48.532;8.026;2023-05-07T01:30:53;13.30;99.90
21207;DHT22;10761;48.532;8.026;2023-05-07T01:33:21;13.30;99.90
21207;DHT22;10761;48.532;8.026;2023-05-07T01:35:50;13.30;99.90
21207;DHT22;10761;48.532;8.026;2023-05-07T01:38:17;13.30;99.90
21207;DHT22;10761;48.532;8.026;2023-05-07T01:40:43;13.30;99.90
21207;DHT22;10761;48.532;8.026;2023-05-07T01:43:09;13.20;48.70
21207;DHT22;10761;48.532;8.026;2023-05-07T01:45:36;13.10;97.40
21207;DHT22;10761;48.532;8.026;2023-05-07T01:48:02;13.00;99.90
21207;DHT22;10761;48.532;8.026;2023-05-07T01:50:29;13.00;99.90
21207;DHT22;10761;48.532;8.026;2023-05-07T01:52:55;13.00;99.90
21207;DHT22;10761;48.532;8.026;2023-05-07T01:55:21;12.90;99.90
21207;DHT22;10761;48.532;8.026;2023-05-07T01:57:47;13.00;99.90
21207;DHT22;10761;48.532;8.026;2023-05-07T02:00:12;13.00;94.60
21207;DHT22;10761;48.532;8.026;2023-05-07T02:02:38;12.90;41.40
21207;DHT22;10761;48.532;8.026;2023-05-07T02:05:04;12.80;1.00
21207;DHT22;10761;48.532;8.026;2023-05-07T02:07:30;12.80;1.00
21207;DHT22;10761;48.532;8.026;2023-05-07T02:09:55;12.80;1.00
21207;DHT22;10761;48.532;8.026;2023-05-07T02:12:22;12.80;99.90
21207;DHT22;10761;48.532;8.026;2023-05-07T02:14:48;12.70;99.90
21207;DHT22;10761;48.532;8.026;2023-05-07T02:17:13;12.70;99.90
21207;DHT22;10761;48.532;8.026;2023-05-07T02:19:39;12.60;98.50
21207;DHT22;10761;48.532;8.026;2023-05-07T02:22:04;12.70;99.90
21207;DHT22;10761;48.532;8.026;2023-05-07T02:24:30;12.70;99.90
21207;DHT22;10761;48.532;8.026;2023-05-07T02:26:56;12.60;71.10
21207;DHT22;10761;48.532;8.026;2023-05-07T02:29:21;12.60;99.90
21207;DHT22;10761;48.532;8.026;2023-05-07T02:31:47;12.50;99.90
21207;DHT22;10761;48.532;8.026;2023-05-07T02:34:16;12.40;99.90
21207;DHT22;10761;48.532;8.026;2023-05-07T02:36:42;12.40;99.90
21207;DHT22;10761;48.532;8.026;2023-05-07T02:39:08;12.40;99.90
21207;DHT22;10761;48.532;8.026;2023-05-07T02:41:33;12.30;99.90
21207;DHT22;10761;48.532;8.026;2023-05-07T02:43:59;12.30;99.90
21207;DHT22;10761;48.532;8.026;2023-05-07T02:46:24;12.20;99.90
21207;DHT22;10761;48.532;8.026;2023-05-07T02:48:50;12.20;99.90
21207;DHT22;10761;48.532;8.026;2023-05-07T02:51:19;12.10;99.90
21207;DHT22;10761;48.532;8.026;2023-05-07T02:53:45;12.10;99.90
21207;DHT22;10761;48.532;8.026;2023-05-07T02:56:11;12.10;99.90
21207;DHT22;10761;48.532;8.026;2023-05-07T02:58:36;12.00;99.90
21207;DHT22;10761;48.532;8.026;2023-05-07T03:01:02;12.00;99.90
21207;DHT22;10761;48.532;8.026;2023-05-07T03:03:27;12.00;99.90
21207;DHT22;10761;48.532;8.026;2023-05-07T03:05:53;12.00;99.90
21207;DHT22;10761;48.532;8.026;2023-05-07T03:08:19;11.90;99.90
21207;DHT22;10761;48.532;8.026;2023-05-07T03:10:44;11.90;99.90
21207;DHT22;10761;48.532;8.026;2023-05-07T03:13:10;11.80;99.90
21207;DHT22;10761;48.532;8.026;2023-05-07T03:15:35;11.80;99.90
21207;DHT22;10761;48.532;8.026;2023-05-07T03:18:01;11.60;99.90
21207;DHT22;10761;48.532;8.026;2023-05-07T03:20:27;11.50;99.90
21207;DHT22;10761;48.532;8.026;2023-05-07T03:22:52;11.50;99.90
21207;DHT22;10761;48.532;8.026;2023-05-07T03:25:18;11.40;99.90
21207;DHT22;10761;48.532;8.026;2023-05-07T03:27:43;11.50;99.90
21207;DHT22;10761;48.532;8.026;2023-05-07T03:30:10;11.40;99.90
21207;DHT22;10761;48.532;8.026;2023-05-07T03:32:35;11.40;99.90
21207;DHT22;10761;48.532;8.026;2023-05-07T03:35:01;11.40;99.90
21207;DHT22;10761;48.532;8.026;2023-05-07T03:37:27;11.50;99.90
21207;DHT22;10761;48.532;8.026;2023-05-07T03:39:53;11.50;99.90
21207;DHT22;10761;48.532;8.026;2023-05-07T03:42:19;11.50;99.90
21207;DHT22;10761;48.532;8.026;2023-05-07T03:44:44;11.50;99.90
21207;DHT22;10761;48.532;8.026;2023-05-07T03:47:10;11.40;99.90
21207;DHT22;10761;48.532;8.026;2023-05-07T03:49:36;11.40;99.90
21207;DHT22;10761;48.532;8.026;2023-05-07T03:52:01;11.50;99.90
21207;DHT22;10761;48.532;8.026;2023-05-07T03:54:27;11.40;99.90
21207;DHT22;10761;48.532;8.026;2023-05-07T03:56:52;11.40;99.90
21207;DHT22;10761;48.532;8.026;2023-05-07T03:59:18;11.40;99.90
21207;DHT22;10761;48.532;8.026;2023-05-07T04:01:44;11.50;99.90
21207;DHT22;10761;48.532;8.026;2023-05-07T04:04:10;11.50;99.90
21207;DHT22;10761;48.532;8.026;2023-05-07T04:06:35;11.50;99.90
21207;DHT22;10761;48.532;8.026;2023-05-07T04:09:01;11.40;99.90
21207;DHT22;10761;48.532;8.026;2023-05-07T04:11:27;11.40;99.90
21207;DHT22;10761;48.532;8.026;2023-05-07T04:13:52;11.40;99.90
21207;DHT22;10761;48.532;8.026;2023-05-07T04:16:18;11.40;99.90
21207;DHT22;10761;48.532;8.026;2023-05-07T04:18:43;11.40;99.90
21207;DHT22;10761;48.532;8.026;2023-05-07T04:21:16;11.50;99.90
21207;DHT22;10761;48.532;8.026;2023-05-07T04:23:42;11.50;99.90
21207;DHT22;10761;48.532;8.026;2023-05-07T04:26:08;11.50;99.90
21207;DHT22;10761;48.532;8.026;2023-05-07T04:28:34;11.50;99.90
21207;DHT22;10761;48.532;8.026;2023-05-07T04:31:00;11.50;99.90
21207;DHT22;10761;48.532;8.026;2023-05-07T04:33:26;11.60;99.90
21207;DHT22;10761;48.532;8.026;2023-05-07T04:35:51;11.60;99.90
21207;DHT22;10761;48.532;8.026;2023-05-07T04:38:17;11.70;99.90
21207;DHT22;10761;48.532;8.026;2023-05-07T04:40:44;11.80;99.90
21207;DHT22;10761;48.532;8.026;2023-05-07T04:43:10;11.90;99.90
21207;DHT22;10761;48.532;8.026;2023-05-07T04:45:36;11.90;99.90
21207;DHT22;10761;48.532;8.026;2023-05-07T04:48:02;12.00;99.90
21207;DHT22;10761;48.532;8.026;2023-05-07T04:50:28;12.00;99.90
21207;DHT22;10761;48.532;8.026;2023-05-07T04:52:53;12.10;99.90
21207;DHT22;10761;48.532;8.026;2023-05-07T04:55:19;12.20;99.90
21207;DHT22;10761;48.532;8.026;2023-05-07T04:57:44;12.30;99.90
21207;DHT22;10761;48.532;8.026;2023-05-07T05:00:11;12.50;99.90
21207;DHT22;10761;48.532;8.026;2023-05-07T05:02:40;12.60;99.90
21207;DHT22;10761;48.532;8.026;2023-05-07T05:05:06;12.80;99.90
21207;DHT22;10761;48.532;8.026;2023-05-07T05:07:32;12.90;99.90
21207;DHT22;10761;48.532;8.026;2023-05-07T05:09:57;13.00;99.90
21207;DHT22;10761;48.532;8.026;2023-05-07T05:12:23;13.20;99.90
21207;DHT22;10761;48.532;8.026;2023-05-07T05:14:48;13.30;99.90
21207;DHT22;10761;48.532;8.026;2023-05-07T05:17:14;13.40;99.90
21207;DHT22;10761;48.532;8.026;2023-05-07T05:19:40;13.50;99.90
21207;DHT22;10761;48.532;8.026;2023-05-07T05:22:05;13.60;99.90
21207;DHT22;10761;48.532;8.026;2023-05-07T05:24:31;13.70;99.90
21207;DHT22;10761;48.532;8.026;2023-05-07T05:26:57;13.70;99.90
21207;DHT22;10761;48.532;8.026;2023-05-07T05:29:22;13.90;99.90
21207;DHT22;10761;48.532;8.026;2023-05-07T05:31:48;14.00;99.90
21207;DHT22;10761;48.532;8.026;2023-05-07T05:34:13;14.10;99.00
21207;DHT22;10761;48.532;8.026;2023-05-07T05:36:39;14.20;59.20
21207;DHT22;10761;48.532;8.026;2023-05-07T05:39:05;14.40;12.60
21207;DHT22;10761;48.532;8.026;2023-05-07T05:41:31;14.50;1.00
21207;DHT22;10761;48.532;8.026;2023-05-07T05:43:56;14.60;20.10
21207;DHT22;10761;48.532;8.026;2023-05-07T05:46:22;14.80;1.00
21207;DHT22;10761;48.532;8.026;2023-05-07T05:48:48;15.10;1.00
21207;DHT22;10761;48.532;8.026;2023-05-07T05:51:13;15.30;1.00
21207;DHT22;10761;48.532;8.026;2023-05-07T05:53:39;15.50;1.00
21207;DHT22;10761;48.532;8.026;2023-05-07T05:56:04;15.70;1.00
21207;DHT22;10761;48.532;8.026;2023-05-07T05:58:30;15.80;1.00
21207;DHT22;10761;48.532;8.026;2023-05-07T06:00:56;16.10;1.00
21207;DHT22;10761;48.532;8.026;2023-05-07T06:03:21;16.20;1.00
21207;DHT22;10761;48.532;8.026;2023-05-07T06:05:47;16.30;99.90
21207;DHT22;10761;48.532;8.026;2023-05-07T06:08:13;16.30;99.90
21207;DHT22;10761;48.532;8.026;2023-05-07T06:10:39;16.10;99.90
21207;DHT22;10761;48.532;8.026;2023-05-07T06:13:05;16.20;99.90
21207;DHT22;10761;48.532;8.026;2023-05-07T06:15:30;16.30;80.70
21207;DHT22;10761;48.532;8.026;2023-05-07T06:17:56;16.20;1.00
21207;DHT22;10761;48.532;8.026;2023-05-07T06:20:23;16.00;66.30
21207;DHT22;10761;48.532;8.026;2023-05-07T06:22:48;15.80;99.90
21207;DHT22;10761;48.532;8.026;2023-05-07T06:25:14;15.80;1.00
21207;DHT22;10761;48.532;8.026;2023-05-07T06:27:40;15.90;99.90
21207;DHT22;10761;48.532;8.026;2023-05-07T06:30:06;15.80;99.90
21207;DHT22;10761;48.532;8.026;2023-05-07T06:32:32;15.80;99.90
21207;DHT22;10761;48.532;8.026;2023-05-07T06:34:58;15.80;99.90
21207;DHT22;10761;48.532;8.026;2023-05-07T06:37:23;15.90;1.00
21207;DHT22;10761;48.532;8.026;2023-05-07T06:39:49;16.00;99.90
21207;DHT22;10761;48.532;8.026;2023-05-07T06:42:15;16.10;94.50
21207;DHT22;10761;48.532;8.026;2023-05-07T06:44:40;16.20;99.90
21207;DHT22;10761;48.532;8.026;2023-05-07T06:47:06;16.30;1.00
21207;DHT22;10761;48.532;8.026;2023-05-07T06:49:31;16.10;1.00
21207;DHT22;10761;48.532;8.026;2023-05-07T06:51:57;16.20;10.00
21207;DHT22;10761;48.532;8.026;2023-05-07T06:54:23;16.00;99.90
21207;DHT22;10761;48.532;8.026;2023-05-07T06:56:49;15.90;27.30
21207;DHT22;10761;48.532;8.026;2023-05-07T06:59:15;15.90;1.00
21207;DHT22;10761;48.532;8.026;2023-05-07T07:01:41;15.70;1.00
21207;DHT22;10761;48.532;8.026;2023-05-07T07:04:06;15.80;1.00
21207;DHT22;10761;48.532;8.026;2023-05-07T07:06:32;16.00;99.90
21207;DHT22;10761;48.532;8.026;2023-05-07T07:08:58;16.20;1.00
21207;DHT22;10761;48.532;8.026;2023-05-07T07:11:24;16.20;1.00
21207;DHT22;10761;48.532;8.026;2023-05-07T07:13:50;16.10;99.90
21207;DHT22;10761;48.532;8.026;2023-05-07T07:16:16;16.20;1.00
21207;DHT22;10761;48.532;8.026;2023-05-07T07:18:41;16.40;75.60
21207;DHT22;10761;48.532;8.026;2023-05-07T07:21:07;16.80;99.90
21207;DHT22;10761;48.532;8.026;2023-05-07T07:23:32;16.90;99.90
21207;DHT22;10761;48.532;8.026;2023-05-07T07:25:58;17.00;1.00
21207;DHT22;10761;48.532;8.026;2023-05-07T07:28:24;17.00;1.00
21207;DHT22;10761;48.532;8.026;2023-05-07T07:30:49;17.00;69.20
21207;DHT22;10761;48.532;8.026;2023-05-07T07:33:15;17.00;99.90
21207;DHT22;10761;48.532;8.026;2023-05-07T07:35:41;17.60;1.00
21207;DHT22;10761;48.532;8.026;2023-05-07T07:38:07;18.40;1.00
21207;DHT22;10761;48.532;8.026;2023-05-07T07:40:34;18.70;99.90
21207;DHT22;10761;48.532;8.026;2023-05-07T07:43:00;18.60;99.90
21207;DHT22;10761;48.532;8.026;2023-05-07T07:45:26;18.70;1.00
21207;DHT22;10761;48.532;8.026;2023-05-07T07:47:52;19.00;99.90
21207;DHT22;10761;48.532;8.026;2023-05-07T07:50:17;19.60;1.00
21207;DHT22;10761;48.532;8.026;2023-05-07T07:52:43;19.60;1.00
21207;DHT22;10761;48.532;8.026;2023-05-07T07:55:09;20.00;99.90
21207;DHT22;10761;48.532;8.026;2023-05-07T07:57:35;20.60;99.90
21207;DHT22;10761;48.532;8.026;2023-05-07T08:00:01;20.90;1.00
21207;DHT22;10761;48.532;8.026;2023-05-07T08:02:26;21.40;1.00
21207;DHT22;10761;48.532;8.026;2023-05-07T08:04:52;21.50;99.90
21207;DHT22;10761;48.532;8.026;2023-05-07T08:07:17;21.90;99.90
21207;DHT22;10761;48.532;8.026;2023-05-07T08:09:46;22.60;99.90
21207;DHT22;10761;48.532;8.026;2023-05-07T08:12:11;23.20;1.00
21207;DHT22;10761;48.532;8.026;2023-05-07T08:14:37;23.70;1.00
21207;DHT22;10761;48.532;8.026;2023-05-07T08:17:03;24.10;1.00
21207;DHT22;10761;48.532;8.026;2023-05-07T08:19:28;23.70;1.00
21207;DHT22;10761;48.532;8.026;2023-05-07T08:21:54;23.10;1.00
21207;DHT22;10761;48.532;8.026;2023-05-07T08:24:20;22.20;1.00
21207;DHT22;10761;48.532;8.026;2023-05-07T08:26:46;21.50;1.00
21207;DHT22;10761;48.532;8.026;2023-05-07T08:29:12;21.30;1.00
21207;DHT22;10761;48.532;8.026;2023-05-07T08:31:37;21.30;28.40
21207;DHT22;10761;48.532;8.026;2023-05-07T08:34:06;21.20;99.90
21207;DHT22;10761;48.532;8.026;2023-05-07T08:36:32;20.60;99.90
21207;DHT22;10761;48.532;8.026;2023-05-07T08:38:57;20.20;99.90
21207;DHT22;10761;48.532;8.026;2023-05-07T08:41:23;20.60;1.00
21207;DHT22;10761;48.532;8.026;2023-05-07T08:43:50;21.40;1.00
21207;DHT22;10761;48.532;8.026;2023-05-07T08:46:21;21.50;1.00
21207;DHT22;10761;48.532;8.026;2023-05-07T08:48:50;21.80;99.90
21207;DHT22;10761;48.532;8.026;2023-05-07T08:51:19;22.00;99.90
21207;DHT22;10761;48.532;8.026;2023-05-07T08:53:46;21.90;99.90
21207;DHT22;10761;48.532;8.026;2023-05-07T08:56:14;22.10;99.90
21207;DHT22;10761;48.532;8.026;2023-05-07T08:58:41;22.10;99.90
21207;DHT22;10761;48.532;8.026;2023-05-07T09:01:09;22.40;99.90
21207;DHT22;10761;48.532;8.026;2023-05-07T09:03:38;23.10;99.90
21207;DHT22;10761;48.532;8.026;2023-05-07T09:06:04;23.20;1.00
21207;DHT22;10761;48.532;8.026;2023-05-07T09:08:32;22.50;1.00
21207;DHT22;10761;48.532;8.026;2023-05-07T09:10:57;22.70;36.00
21207;DHT22;10761;48.532;8.026;2023-05-07T09:13:23;23.30;1.00
21207;DHT22;10761;48.532;8.026;2023-05-07T09:15:49;23.70;1.00
21207;DHT22;10761;48.532;8.026;2023-05-07T09:18:14;23.70;1.00
21207;DHT22;10761;48.532;8.026;2023-05-07T09:20:40;23.10;1.00
21207;DHT22;10761;48.532;8.026;2023-05-07T09:23:06;23.20;1.00
21207;DHT22;10761;48.532;8.026;2023-05-07T09:25:34;23.00;1.00
21207;DHT22;10761;48.532;8.026;2023-05-07T09:28:00;22.60;1.00
21207;DHT22;10761;48.532;8.026;2023-05-07T09:30:33;22.30;1.00
21207;DHT22;10761;48.532;8.026;2023-05-07T09:33:01;22.50;1.00
21207;DHT22;10761;48.532;8.026;2023-05-07T09:35:28;22.70;1.00
21207;DHT22;10761;48.532;8.026;2023-05-07T09:37:55;23.40;1.00
21207;DHT22;10761;48.532;8.026;2023-05-07T09:40:28;24.10;1.00
21207;DHT22;10761;48.532;8.026;2023-05-07T09:42:54;24.40;1.00
21207;DHT22;10761;48.532;8.026;2023-05-07T09:45:29;24.70;1.00
21207;DHT22;10761;48.532;8.026;2023-05-07T09:47:56;24.90;1.00
21207;DHT22;10761;48.532;8.026;2023-05-07T09:50:46;24.60;1.00
21207;DHT22;10761;48.532;8.026;2023-05-07T09:53:14;24.70;1.00
21207;DHT22;10761;48.532;8.026;2023-05-07T09:55:41;24.90;1.00
21207;DHT22;10761;48.532;8.026;2023-05-07T09:58:07;24.60;1.00
21207;DHT22;10761;48.532;8.026;2023-05-07T10:00:34;24.20;1.00
21207;DHT22;10761;48.532;8.026;2023-05-07T10:03:01;24.00;1.00
21207;DHT22;10761;48.532;8.026;2023-05-07T10:05:28;24.00;1.00
21207;DHT22;10761;48.532;8.026;2023-05-07T10:07:54;24.20;1.00
21207;DHT22;10761;48.532;8.026;2023-05-07T10:10:21;24.30;1.00
21207;DHT22;10761;48.532;8.026;2023-05-07T10:12:47;24.50;1.00
21207;DHT22;10761;48.532;8.026;2023-05-07T10:15:13;24.60;1.00
21207;DHT22;10761;48.532;8.026;2023-05-07T10:17:40;24.80;1.00
21207;DHT22;10761;48.532;8.026;2023-05-07T10:20:07;24.70;1.00
21207;DHT22;10761;48.532;8.026;2023-05-07T10:22:38;24.50;1.00
21207;DHT22;10761;48.532;8.026;2023-05-07T10:25:09;24.60;1.00
21207;DHT22;10761;48.532;8.026;2023-05-07T10:27:39;24.60;1.00
21207;DHT22;10761;48.532;8.026;2023-05-07T10:30:30;24.50;1.00
21207;DHT22;10761;48.532;8.026;2023-05-07T10:33:02;24.20;1.00
21207;DHT22;10761;48.532;8.026;2023-05-07T10:35:31;23.90;1.00
21207;DHT22;10761;48.532;8.026;2023-05-07T10:37:58;23.60;1.00
21207;DHT22;10761;48.532;8.026;2023-05-07T10:40:24;23.80;1.00
21207;DHT22;10761;48.532;8.026;2023-05-07T10:43:00;24.10;1.00
21207;DHT22;10761;48.532;8.026;2023-05-07T10:45:27;24.50;1.00
21207;DHT22;10761;48.532;8.026;2023-05-07T10:48:06;24.80;1.00
21207;DHT22;10761;48.532;8.026;2023-05-07T10:50:33;24.80;1.00
21207;DHT22;10761;48.532;8.026;2023-05-07T10:55:51;24.00;1.00
21207;DHT22;10761;48.532;8.026;2023-05-07T10:58:29;23.90;1.00
21207;DHT22;10761;48.532;8.026;2023-05-07T11:00:58;23.70;1.00
21207;DHT22;10761;48.532;8.026;2023-05-07T11:03:25;23.50;1.00
21207;DHT22;10761;48.532;8.026;2023-05-07T11:08:57;23.30;1.00
21207;DHT22;10761;48.532;8.026;2023-05-07T11:11:55;23.40;1.00
21207;DHT22;10761;48.532;8.026;2023-05-07T11:17:06;23.70;1.00
21207;DHT22;10761;48.532;8.026;2023-05-07T11:19:55;23.40;1.00
21207;DHT22;10761;48.532;8.026;2023-05-07T11:25:08;22.70;1.00
21207;DHT22;10761;48.532;8.026;2023-05-07T11:27:34;22.60;1.00
21207;DHT22;10761;48.532;8.026;2023-05-07T11:29:59;22.60;1.00
21207;DHT22;10761;48.532;8.026;2023-05-07T11:32:29;22.70;1.00
21207;DHT22;10761;48.532;8.026;2023-05-07T11:34:59;22.80;1.00
21207;DHT22;10761;48.532;8.026;2023-05-07T11:37:26;22.70;1.00
21207;DHT22;10761;48.532;8.026;2023-05-07T11:42:34;22.70;1.00
21207;DHT22;10761;48.532;8.026;2023-05-07T11:45:00;22.50;1.00
21207;DHT22;10761;48.532;8.026;2023-05-07T11:47:26;22.50;1.00
21207;DHT22;10761;48.532;8.026;2023-05-07T11:49:55;22.50;1.00
21207;DHT22;10761;48.532;8.026;2023-05-07T11:52:22;22.50;1.00
21207;DHT22;10761;48.532;8.026;2023-05-07T11:55:06;22.50;1.00
21207;DHT22;10761;48.532;8.026;2023-05-07T11:57:33;22.90;1.00
21207;DHT22;10761;48.532;8.026;2023-05-07T12:00:00;22.90;1.00
21207;DHT22;10761;48.532;8.026;2023-05-07T12:02:30;23.20;1.00
21207;DHT22;10761;48.532;8.026;2023-05-07T12:04:56;23.70;1.00
21207;DHT22;10761;48.532;8.026;2023-05-07T12:07:23;24.10;1.00
21207;DHT22;10761;48.532;8.026;2023-05-07T12:09:50;24.00;1.00
21207;DHT22;10761;48.532;8.026;2023-05-07T12:12:15;23.60;1.00
21207;DHT22;10761;48.532;8.026;2023-05-07T12:14:44;23.30;1.00
21207;DHT22;10761;48.532;8.026;2023-05-07T12:17:11;23.20;1.00
21207;DHT22;10761;48.532;8.026;2023-05-07T12:19:39;22.90;1.00
21207;DHT22;10761;48.532;8.026;2023-05-07T12:22:05;22.50;1.00
21207;DHT22;10761;48.532;8.026;2023-05-07T12:24:46;22.10;1.00
21207;DHT22;10761;48.532;8.026;2023-05-07T12:27:12;21.90;1.00
21207;DHT22;10761;48.532;8.026;2023-05-07T12:29:38;21.80;1.00
21207;DHT22;10761;48.532;8.026;2023-05-07T12:32:13;21.90;1.00
21207;DHT22;10761;48.532;8.026;2023-05-07T12:34:39;21.90;1.00
21207;DHT22;10761;48.532;8.026;2023-05-07T12:37:05;21.80;1.00
21207;DHT22;10761;48.532;8.026;2023-05-07T12:39:30;21.60;1.00
21207;DHT22;10761;48.532;8.026;2023-05-07T12:41:59;21.60;1.00
21207;DHT22;10761;48.532;8.026;2023-05-07T12:44:29;21.70;1.00
21207;DHT22;10761;48.532;8.026;2023-05-07T12:46:55;21.60;1.00
21207;DHT22;10761;48.532;8.026;2023-05-07T12:49:21;21.50;1.00
21207;DHT22;10761;48.532;8.026;2023-05-07T12:51:47;21.50;1.00
21207;DHT22;10761;48.532;8.026;2023-05-07T12:54:14;21.50;1.00
21207;DHT22;10761;48.532;8.026;2023-05-07T12:56:39;21.50;1.00
21207;DHT22;10761;48.532;8.026;2023-05-07T12:59:05;21.40;1.00
21207;DHT22;10761;48.532;8.026;2023-05-07T13:01:31;21.50;1.00
21207;DHT22;10761;48.532;8.026;2023-05-07T13:04:01;21.70;1.00
21207;DHT22;10761;48.532;8.026;2023-05-07T13:06:29;21.80;1.00
21207;DHT22;10761;48.532;8.026;2023-05-07T13:08:55;22.00;1.00
21207;DHT22;10761;48.532;8.026;2023-05-07T13:11:20;22.10;1.00
21207;DHT22;10761;48.532;8.026;2023-05-07T13:13:46;22.20;1.00
21207;DHT22;10761;48.532;8.026;2023-05-07T13:16:11;22.30;1.00
21207;DHT22;10761;48.532;8.026;2023-05-07T13:18:39;22.40;1.00
21207;DHT22;10761;48.532;8.026;2023-05-07T13:21:05;22.60;1.00
21207;DHT22;10761;48.532;8.026;2023-05-07T13:23:30;22.60;1.00
21207;DHT22;10761;48.532;8.026;2023-05-07T13:25:56;22.70;1.00
21207;DHT22;10761;48.532;8.026;2023-05-07T13:28:24;22.50;1.00
21207;DHT22;10761;48.532;8.026;2023-05-07T13:30:49;22.20;1.00
21207;DHT22;10761;48.532;8.026;2023-05-07T13:33:17;22.10;77.30
21207;DHT22;10761;48.532;8.026;2023-05-07T13:35:43;22.40;99.90
21207;DHT22;10761;48.532;8.026;2023-05-07T13:38:08;22.50;99.90
21207;DHT22;10761;48.532;8.026;2023-05-07T13:40:34;22.60;1.00
21207;DHT22;10761;48.532;8.026;2023-05-07T13:43:00;22.50;1.00
21207;DHT22;10761;48.532;8.026;2023-05-07T13:45:28;22.30;99.90
21207;DHT22;10761;48.532;8.026;2023-05-07T13:47:55;22.10;99.90
21207;DHT22;10761;48.532;8.026;2023-05-07T13:50:20;22.00;99.90
21207;DHT22;10761;48.532;8.026;2023-05-07T13:52:46;22.00;99.90
21207;DHT22;10761;48.532;8.026;2023-05-07T13:55:23;22.10;99.90
21207;DHT22;10761;48.532;8.026;2023-05-07T13:57:55;22.00;99.90
21207;DHT22;10761;48.532;8.026;2023-05-07T14:00:21;21.90;99.90
21207;DHT22;10761;48.532;8.026;2023-05-07T14:02:47;21.80;99.90
21207;DHT22;10761;48.532;8.026;2023-05-07T14:05:13;21.80;99.90
21207;DHT22;10761;48.532;8.026;2023-05-07T14:07:38;21.60;99.90
21207;DHT22;10761;48.532;8.026;2023-05-07T14:10:04;21.60;1.00
21207;DHT22;10761;48.532;8.026;2023-05-07T14:12:32;21.80;1.00
21207;DHT22;10761;48.532;8.026;2023-05-07T14:14:58;21.90;1.00
21207;DHT22;10761;48.532;8.026;2023-05-07T14:17:23;21.80;1.00
21207;DHT22;10761;48.532;8.026;2023-05-07T14:19:51;22.00;1.00
21207;DHT22;10761;48.532;8.026;2023-05-07T14:22:22;22.20;1.00
21207;DHT22;10761;48.532;8.026;2023-05-07T14:24:49;22.20;1.00
21207;DHT22;10761;48.532;8.026;2023-05-07T14:27:15;22.00;1.00
21207;DHT22;10761;48.532;8.026;2023-05-07T14:29:41;22.00;1.00
21207;DHT22;10761;48.532;8.026;2023-05-07T14:32:07;21.80;1.00
21207;DHT22;10761;48.532;8.026;2023-05-07T14:34:33;22.10;1.00
21207;DHT22;10761;48.532;8.026;2023-05-07T14:37:00;22.30;1.00
21207;DHT22;10761;48.532;8.026;2023-05-07T14:39:25;22.30;1.00
21207;DHT22;10761;48.532;8.026;2023-05-07T14:41:51;22.20;1.00
21207;DHT22;10761;48.532;8.026;2023-05-07T14:44:20;22.20;1.00
21207;DHT22;10761;48.532;8.026;2023-05-07T14:46:46;21.80;99.90
21207;DHT22;10761;48.532;8.026;2023-05-07T14:49:11;21.80;1.00
21207;DHT22;10761;48.532;8.026;2023-05-07T14:51:43;21.80;1.00
21207;DHT22;10761;48.532;8.026;2023-05-07T14:54:09;21.60;1.00
21207;DHT22;10761;48.532;8.026;2023-05-07T14:56:35;21.10;1.00
21207;DHT22;10761;48.532;8.026;2023-05-07T14:59:02;20.90;1.00
21207;DHT22;10761;48.532;8.026;2023-05-07T15:01:28;20.80;99.90
21207;DHT22;10761;48.532;8.026;2023-05-07T15:03:53;21.10;99.90
21207;DHT22;10761;48.532;8.026;2023-05-07T15:06:19;21.20;10.60
21207;DHT22;10761;48.532;8.026;2023-05-07T15:08:45;21.30;1.00
21207;DHT22;10761;48.532;8.026;2023-05-07T15:11:11;21.30;1.00
21207;DHT22;10761;48.532;8.026;2023-05-07T15:13:36;21.60;1.00
21207;DHT22;10761;48.532;8.026;2023-05-07T15:16:02;21.80;1.00
21207;DHT22;10761;48.532;8.026;2023-05-07T15:18:27;21.90;1.00
21207;DHT22;10761;48.532;8.026;2023-05-07T15:20:53;21.90;1.00
21207;DHT22;10761;48.532;8.026;2023-05-07T15:23:18;21.60;99.90
21207;DHT22;10761;48.532;8.026;2023-05-07T15:25:44;21.40;99.90
21207;DHT22;10761;48.532;8.026;2023-05-07T15:28:09;21.60;1.00
21207;DHT22;10761;48.532;8.026;2023-05-07T15:30:35;21.30;99.90
21207;DHT22;10761;48.532;8.026;2023-05-07T15:33:01;21.00;99.90
21207;DHT22;10761;48.532;8.026;2023-05-07T15:35:28;21.00;99.90
21207;DHT22;10761;48.532;8.026;2023-05-07T15:37:53;21.10;99.90
21207;DHT22;10761;48.532;8.026;2023-05-07T15:40:19;21.20;99.90
21207;DHT22;10761;48.532;8.026;2023-05-07T15:42:45;21.20;99.90
21207;DHT22;10761;48.532;8.026;2023-05-07T15:45:11;21.10;99.90
21207;DHT22;10761;48.532;8.026;2023-05-07T15:47:37;21.00;1.00
21207;DHT22;10761;48.532;8.026;2023-05-07T15:50:03;21.00;1.00